Modesto City Co-Harry Sham Field Modesto US
ICAO: KMOD
IATA: MOD
Category: Medium
Scheduled Services: Yes

Elevation: 97 ft
TransAlt. 18000 ft.

Airport Communications:
NORCAL APP/DEP:36.32
NORCAL APP/DEP:120.95
ASOS:127.7
ATIS:127.7
CTAF:125.3
GND:121.7
RANCHO RDO:114.6
TWR:125.3
UNICOM:122.95

KMOD Zoom In..

Runways:

(A) RW 10L length 5904 ft width 150 ft
---- / hdg 108

(B) RW 10R length 3464 ft width 100 ft
---- / hdg 108

(C) RW 28L length 3464 ft width 100 ft
---- / hdg 288

(D) RW 28R length 5904 ft width 150 ft
ILS 111.90 / hdg 288

Location; KMOD
Day. 21 / Time. 14.53 Zulu
* Altimeter: 29.85
* Temperature: 13° c. 55.4°f.
* Wind from: 000° Speed 00 kn.
Dewpoint: 09° c.
Visibility: 10 Statute Miles.
Clouds: Clear (automated report).

KMOD 211453Z 00000KT 10SM CLR 13/09 A2985 RMK AO2 SLP108 T01330089 53008 $


Wind - Calm.

 
 
jpsmedia.com for Web Design SOUNDCLOUD worldairports.se 2018   terms of use